Filion, Michigan
Current Conditions -  °F | °C
As of 8:15 AM on Sunday 21 Dec 2014 (Local Time) from KBAX Reporting Station
Overcast Overcast  
Wind Chill: 24°   Ceiling: 4200
Heat Index: 24°   Visibility: 7mi
Dew Point: 23°   Wind: 0mph
Humidity: 97%   Direction: NA
Pressure: 30.29"   Gusts: NA
Location:  43.9°N, 83°W
Report Text: KBAX 211315Z AUTO 00000KT 7SM OVC042 M04/M05 A3029 RMK AO2 T10451049
Loading
Personal Weather Stations






























Interactive Weather Map New forecast layout! Learn more

10-Day Weather Forecast

Advertisements
Track Severe Weather on mobile